Time;durP1;ratioP1;P1;durP2;ratioP2;P2;SDS_P1;SDS_P2;PMS_P1;PMS_P2;Temp;Humidity;BMP_temperature;BMP_pressure;BME280_temperature;BME280_humidity;BME280_pressure;Samples;Min_cycle;Max_cycle;Signal;HPM_P1;HPM_P2
2021/08/23 00:01:41;;;;;;;8.30;6.25;;;14.60;99.90;;;;;;5046959;28;20203;-66
2021/08/23 00:04:07;;;;;;;6.90;6.20;;;14.60;99.90;;;;;;5047213;28;20208;-66
2021/08/23 00:06:35;;;;;;;12.02;6.60;;;14.60;99.90;;;;;;5046674;28;20206;-66
2021/08/23 00:09:02;;;;;;;7.20;6.50;;;14.60;99.90;;;;;;5046721;28;21041;-66
2021/08/23 00:11:29;;;;;;;7.68;6.85;;;14.60;99.90;;;;;;5046777;28;20198;-66
2021/08/23 00:13:56;;;;;;;7.25;6.55;;;14.50;99.90;;;;;;5047368;28;20439;-66
2021/08/23 00:16:23;;;;;;;6.70;5.90;;;14.50;99.90;;;;;;5046829;28;20228;-66
2021/08/23 00:18:51;;;;;;;7.15;6.55;;;14.40;99.90;;;;;;5046836;28;20197;-66
2021/08/23 00:21:22;;;;;;;7.63;6.90;;;14.40;99.90;;;;;;5047446;28;20270;-66
2021/08/23 00:23:52;;;;;;;6.95;6.30;;;14.30;99.90;;;;;;5047162;28;20202;-66
2021/08/23 00:26:19;;;;;;;8.90;6.45;;;14.50;99.90;;;;;;5047413;28;20274;-66
2021/08/23 00:28:47;;;;;;;6.60;6.00;;;14.60;99.90;;;;;;5046283;28;20202;-66
2021/08/23 00:31:14;;;;;;;7.10;6.50;;;14.70;99.90;;;;;;5047009;28;20225;-66
2021/08/23 00:33:41;;;;;;;8.90;6.32;;;14.70;99.90;;;;;;5046497;28;20300;-66
2021/08/23 00:36:08;;;;;;;9.25;6.25;;;14.60;99.90;;;;;;5046263;28;20212;-66
2021/08/23 00:38:34;;;;;;;7.40;5.82;;;14.80;99.90;;;;;;5047322;28;20209;-66
2021/08/23 00:41:03;;;;;;;5.50;5.10;;;14.80;99.90;;;;;;5050788;28;20205;-66
2021/08/23 00:43:30;;;;;;;7.00;6.50;;;14.80;99.90;;;;;;5049676;28;20214;-66
2021/08/23 00:45:57;;;;;;;7.30;5.45;;;14.70;99.90;;;;;;5050272;28;20206;-66
2021/08/23 00:48:24;;;;;;;6.70;6.03;;;14.70;99.90;;;;;;5050268;28;20209;-66
2021/08/23 00:50:51;;;;;;;7.07;5.75;;;14.60;99.90;;;;;;5050642;28;20229;-66
2021/08/23 00:53:19;;;;;;;8.02;6.30;;;14.60;99.90;;;;;;5050675;28;20781;-66
2021/08/23 00:55:45;;;;;;;7.07;6.47;;;14.60;99.90;;;;;;5050253;28;20304;-66
2021/08/23 00:58:14;;;;;;;6.13;5.63;;;14.60;99.90;;;;;;5050340;28;20205;-66
2021/08/23 01:00:46;;;;;;;6.22;5.65;;;14.60;99.90;;;;;;5050918;28;20208;-66
2021/08/23 01:03:19;;;;;;;6.35;5.80;;;14.60;99.90;;;;;;5049940;28;20212;-66
2021/08/23 01:05:46;;;;;;;8.50;6.47;;;14.50;99.90;;;;;;5050292;28;20221;-66
2021/08/23 01:08:21;;;;;;;6.80;6.20;;;14.60;99.90;;;;;;5049585;28;20206;-66
2021/08/23 01:10:52;;;;;;;6.03;5.57;;;14.70;99.90;;;;;;5050063;28;20221;-66
2021/08/23 01:13:22;;;;;;;6.25;5.75;;;14.80;99.90;;;;;;5046780;28;20202;-66
2021/08/23 01:15:49;;;;;;;6.60;6.10;;;14.70;99.90;;;;;;5049984;28;20201;-66
2021/08/23 01:18:16;;;;;;;7.22;5.13;;;14.70;99.90;;;;;;5049927;28;20569;-66
2021/08/23 01:20:45;;;;;;;6.35;5.85;;;14.60;99.90;;;;;;5050361;28;20206;-66
2021/08/23 01:23:13;;;;;;;6.18;5.63;;;14.60;99.90;;;;;;5050416;28;20626;-66
2021/08/23 01:25:41;;;;;;;6.68;6.03;;;14.70;99.90;;;;;;5049307;28;20200;-66
2021/08/23 01:28:15;;;;;;;7.63;6.25;;;14.70;99.90;;;;;;5049265;28;20209;-66
2021/08/23 01:30:56;;;;;;;5.65;5.15;;;14.70;99.90;;;;;;5049538;28;20247;-66
2021/08/23 01:33:24;;;;;;;6.53;6.03;;;14.60;99.90;;;;;;5049355;28;20213;-66
2021/08/23 01:35:52;;;;;;;6.68;5.75;;;14.50;99.90;;;;;;5050012;28;20809;-66
2021/08/23 01:38:19;;;;;;;9.88;5.35;;;14.60;99.90;;;;;;5049220;28;20209;-66
2021/08/23 01:40:46;;;;;;;8.00;5.95;;;14.60;99.90;;;;;;5049574;28;20826;-66
2021/08/23 01:43:12;;;;;;;6.20;5.70;;;14.70;99.90;;;;;;5048165;28;20208;-66
2021/08/23 01:45:39;;;;;;;6.35;5.70;;;14.90;99.90;;;;;;5049234;28;20521;-66
2021/08/23 01:48:06;;;;;;;6.10;5.45;;;14.90;99.90;;;;;;5048577;28;20213;-66
2021/08/23 01:50:35;;;;;;;5.53;5.03;;;14.90;99.90;;;;;;5048721;28;20237;-66
2021/08/23 01:53:01;;;;;;;5.50;5.00;;;14.90;99.90;;;;;;5049912;28;20210;-66
2021/08/23 01:55:28;;;;;;;7.07;6.47;;;15.00;99.90;;;;;;5049445;28;20255;-66
2021/08/23 01:57:55;;;;;;;6.38;5.63;;;14.80;99.90;;;;;;5062363;28;20193;-66
2021/08/23 02:00:22;;;;;;;5.70;5.30;;;14.80;99.90;;;;;;5069169;28;20203;-66
2021/08/23 02:02:49;;;;;;;9.23;5.60;;;14.70;99.90;;;;;;5069500;28;20201;-66
2021/08/23 02:05:16;;;;;;;5.80;5.20;;;14.70;99.90;;;;;;5068729;28;20201;-66
2021/08/23 02:07:44;;;;;;;5.28;4.78;;;14.70;99.90;;;;;;5066466;28;20251;-67
2021/08/23 02:10:11;;;;;;;6.90;5.05;;;14.70;99.90;;;;;;5068216;28;20229;-66
2021/08/23 02:12:38;;;;;;;5.88;5.32;;;14.70;99.90;;;;;;5069041;28;20745;-66
2021/08/23 02:15:05;;;;;;;5.30;4.78;;;14.70;99.90;;;;;;5068285;28;20295;-66
2021/08/23 02:17:32;;;;;;;5.30;4.90;;;14.80;99.90;;;;;;5068028;28;20611;-66
2021/08/23 02:19:59;;;;;;;6.25;5.63;;;14.80;99.90;;;;;;5069080;28;20204;-67
2021/08/23 02:22:26;;;;;;;5.60;5.05;;;14.90;99.90;;;;;;5069245;28;20684;-66
2021/08/23 02:24:54;;;;;;;4.85;4.45;;;14.90;99.90;;;;;;5066027;28;20205;-66
2021/08/23 02:27:21;;;;;;;5.30;4.80;;;14.90;99.90;;;;;;5067841;28;20303;-66
2021/08/23 02:29:48;;;;;;;5.78;5.22;;;14.80;99.90;;;;;;5056549;28;20229;-66
2021/08/23 02:32:14;;;;;;;5.78;5.10;;;14.80;99.90;;;;;;5048960;28;20329;-66
2021/08/23 02:34:41;;;;;;;6.38;5.28;;;14.90;99.90;;;;;;5048532;28;20734;-66
2021/08/23 02:37:08;;;;;;;4.65;4.35;;;15.00;99.90;;;;;;5048227;28;20308;-66
2021/08/23 02:39:35;;;;;;;5.47;4.95;;;14.90;99.90;;;;;;5048693;28;20202;-66
2021/08/23 02:42:03;;;;;;;5.80;5.30;;;15.00;99.90;;;;;;5048778;28;20243;-66
2021/08/23 02:44:30;;;;;;;5.65;5.25;;;15.10;99.90;;;;;;5047216;28;20212;-66
2021/08/23 02:46:57;;;;;;;5.40;4.93;;;15.20;99.90;;;;;;5048708;28;20293;-66
2021/08/23 02:49:24;;;;;;;6.47;5.80;;;15.10;99.90;;;;;;5048435;28;20210;-66
2021/08/23 02:51:51;;;;;;;7.00;5.80;;;15.00;99.90;;;;;;5048566;28;20578;-66
2021/08/23 02:54:18;;;;;;;5.50;5.07;;;15.00;99.90;;;;;;5048469;28;20209;-66
2021/08/23 02:56:44;;;;;;;6.13;5.55;;;15.00;99.90;;;;;;5047727;28;20293;-67
2021/08/23 02:59:13;;;;;;;5.68;5.28;;;15.00;99.90;;;;;;5050481;28;20296;-67
2021/08/23 03:01:39;;;;;;;6.70;4.93;;;15.00;99.90;;;;;;5067297;28;20211;-66
2021/08/23 03:04:07;;;;;;;4.82;4.30;;;15.00;99.90;;;;;;5067904;28;20203;-66
2021/08/23 03:06:33;;;;;;;7.47;5.18;;;15.00;99.90;;;;;;5053209;28;20205;-66
2021/08/23 03:09:00;;;;;;;5.90;4.63;;;15.00;99.90;;;;;;5047784;28;20628;-66
2021/08/23 03:11:27;;;;;;;5.93;5.38;;;15.10;99.90;;;;;;5047710;28;20229;-66
2021/08/23 03:13:54;;;;;;;5.50;4.93;;;15.00;99.90;;;;;;5047986;28;20671;-67
2021/08/23 03:16:22;;;;;;;5.70;5.30;;;14.90;99.90;;;;;;5048048;28;20218;-66
2021/08/23 03:18:49;;;;;;;7.10;5.40;;;15.00;99.90;;;;;;5046933;28;20296;-66
2021/08/23 03:21:16;;;;;;;9.57;4.93;;;15.00;99.90;;;;;;5047995;28;20212;-66
2021/08/23 03:23:42;;;;;;;5.45;4.95;;;15.10;99.90;;;;;;5047244;28;20202;-66
2021/08/23 03:26:09;;;;;;;5.82;4.28;;;15.10;99.90;;;;;;5047341;28;20205;-66
2021/08/23 03:28:36;;;;;;;5.78;4.90;;;15.20;99.90;;;;;;5047311;28;20194;-66
2021/08/23 03:31:03;;;;;;;5.07;4.68;;;15.10;99.90;;;;;;5047531;28;20237;-66
2021/08/23 03:33:32;;;;;;;5.22;3.92;;;15.10;99.90;;;;;;5047833;28;20766;-66
2021/08/23 03:35:59;;;;;;;4.80;4.47;;;15.10;99.90;;;;;;5047546;28;20229;-66
2021/08/23 03:38:27;;;;;;;5.57;4.35;;;15.10;99.90;;;;;;5046960;28;20209;-67
2021/08/23 03:40:54;;;;;;;5.18;4.78;;;15.00;99.90;;;;;;5047939;28;20202;-67
2021/08/23 03:43:21;;;;;;;4.90;4.40;;;15.00;99.90;;;;;;5047210;28;20240;-66
2021/08/23 03:45:48;;;;;;;4.57;4.25;;;15.00;99.90;;;;;;5046840;28;20822;-66
2021/08/23 03:48:15;;;;;;;4.97;4.57;;;15.00;99.90;;;;;;5047150;28;20292;-66
2021/08/23 03:50:43;;;;;;;5.97;5.40;;;15.10;99.90;;;;;;5047061;28;20263;-66
2021/08/23 03:53:10;;;;;;;12.05;5.53;;;15.00;99.90;;;;;;5047368;28;20918;-66
2021/08/23 03:55:36;;;;;;;6.53;5.72;;;14.90;99.90;;;;;;5047050;28;20219;-66
2021/08/23 03:58:04;;;;;;;6.50;6.00;;;14.90;99.90;;;;;;5032788;28;20209;-66
2021/08/23 04:00:31;;;;;;;6.25;5.65;;;15.00;99.90;;;;;;5046746;28;20194;-66
2021/08/23 04:02:58;;;;;;;5.43;4.97;;;14.90;99.90;;;;;;5047567;28;20205;-66
2021/08/23 04:05:25;;;;;;;6.07;4.75;;;15.00;99.90;;;;;;5046373;28;20212;-66
2021/08/23 04:07:53;;;;;;;5.47;4.97;;;15.10;99.90;;;;;;5046780;28;20304;-66
2021/08/23 04:10:20;;;;;;;5.32;4.85;;;15.10;99.90;;;;;;5047137;28;20217;-66
2021/08/23 04:12:47;;;;;;;4.18;3.88;;;15.10;99.90;;;;;;5046384;28;20317;-66
2021/08/23 04:15:14;;;;;;;5.28;4.78;;;15.10;99.90;;;;;;5046544;28;20204;-66
2021/08/23 04:17:41;;;;;;;9.95;4.75;;;15.00;99.90;;;;;;5046513;28;20206;-66
2021/08/23 04:20:09;;;;;;;5.72;4.80;;;15.00;99.90;;;;;;5047235;28;20201;-66
2021/08/23 04:22:35;;;;;;;5.68;4.05;;;15.00;99.90;;;;;;5047331;28;20201;-66
2021/08/23 04:25:04;;;;;;;4.78;4.38;;;15.00;99.90;;;;;;5046859;28;20275;-66
2021/08/23 04:27:31;;;;;;;4.85;4.35;;;15.10;99.90;;;;;;5045453;28;20212;-66
2021/08/23 04:29:58;;;;;;;4.40;4.03;;;15.10;99.90;;;;;;5047020;28;20219;-66
2021/08/23 04:32:25;;;;;;;4.47;4.18;;;15.30;99.90;;;;;;5047024;28;20218;-66
2021/08/23 04:34:51;;;;;;;4.50;4.20;;;15.20;99.90;;;;;;5046455;28;20208;-66
2021/08/23 04:37:18;;;;;;;5.38;4.85;;;15.10;99.90;;;;;;5046715;28;20221;-66
2021/08/23 04:39:47;;;;;;;4.15;3.85;;;15.20;99.90;;;;;;5046691;28;20205;-66
2021/08/23 04:42:15;;;;;;;4.45;3.90;;;15.10;99.90;;;;;;5047083;28;20221;-66
2021/08/23 04:44:44;;;;;;;4.70;4.15;;;15.10;99.90;;;;;;5044530;28;20756;-66
2021/08/23 04:47:11;;;;;;;5.97;4.03;;;15.00;99.90;;;;;;5046390;28;20236;-67
2021/08/23 04:49:38;;;;;;;4.60;4.30;;;15.00;99.90;;;;;;5046332;28;20718;-66
2021/08/23 04:52:05;;;;;;;5.07;3.80;;;15.00;99.90;;;;;;5046587;28;20828;-66
2021/08/23 04:54:32;;;;;;;4.05;3.75;;;15.00;99.90;;;;;;5046555;28;20213;-66
2021/08/23 04:56:59;;;;;;;6.00;3.90;;;15.10;99.90;;;;;;5046862;28;20599;-66
2021/08/23 04:59:27;;;;;;;5.40;4.63;;;15.10;99.90;;;;;;5059080;28;20205;-66
2021/08/23 05:01:54;;;;;;;5.38;4.88;;;15.20;99.90;;;;;;5066433;28;20321;-66
2021/08/23 05:04:20;;;;;;;7.72;4.82;;;15.20;99.90;;;;;;5055613;28;20220;-66
2021/08/23 05:06:47;;;;;;;6.35;4.15;;;15.10;99.90;;;;;;5045906;28;20212;-66
2021/08/23 05:09:14;;;;;;;4.75;4.22;;;15.20;99.90;;;;;;5046113;28;20202;-66
2021/08/23 05:11:41;;;;;;;5.10;4.70;;;15.40;99.90;;;;;;5046017;28;20320;-66
2021/08/23 05:14:09;;;;;;;5.13;4.63;;;15.50;99.90;;;;;;5045607;28;20229;-66
2021/08/23 05:16:37;;;;;;;4.95;4.55;;;15.40;99.90;;;;;;5044913;28;20213;-66
2021/08/23 05:19:05;;;;;;;5.40;4.90;;;15.40;99.90;;;;;;5045512;28;20201;-66
2021/08/23 05:21:32;;;;;;;7.13;4.95;;;15.30;99.90;;;;;;5040896;28;20205;-66
2021/08/23 05:23:59;;;;;;;7.00;4.30;;;15.10;99.90;;;;;;5045972;28;20579;-66
2021/08/23 05:26:26;;;;;;;5.32;4.60;;;15.10;99.90;;;;;;5048735;28;20300;-66
2021/08/23 05:28:53;;;;;;;4.95;4.47;;;15.10;99.90;;;;;;5049628;28;20209;-66
2021/08/23 05:31:21;;;;;;;4.53;4.03;;;15.20;99.90;;;;;;5049911;28;20242;-66
2021/08/23 05:33:50;;;;;;;5.53;3.92;;;15.30;99.90;;;;;;5050185;28;20320;-65
2021/08/23 05:36:17;;;;;;;5.75;5.03;;;15.40;99.90;;;;;;5050055;28;20292;-65
2021/08/23 05:38:44;;;;;;;4.60;4.30;;;15.20;99.90;;;;;;5048622;28;20571;-65
2021/08/23 05:41:11;;;;;;;5.00;4.60;;;15.20;99.90;;;;;;5050011;28;20202;-64
2021/08/23 05:43:38;;;;;;;5.82;5.32;;;15.20;99.90;;;;;;5048827;28;20202;-65
2021/08/23 05:46:06;;;;;;;6.63;4.57;;;15.20;99.90;;;;;;5048876;28;20241;-65
2021/08/23 05:48:33;;;;;;;7.00;4.82;;;15.20;99.90;;;;;;5048786;28;20212;-65
2021/08/23 05:51:02;;;;;;;4.50;4.13;;;15.20;99.90;;;;;;5045539;28;20246;-65
2021/08/23 05:53:29;;;;;;;5.00;4.43;;;15.20;99.90;;;;;;5029588;28;20332;-65
2021/08/23 05:55:56;;;;;;;5.40;4.90;;;15.20;99.90;;;;;;5029580;28;20213;-65
2021/08/23 05:58:23;;;;;;;5.25;4.75;;;15.30;99.90;;;;;;5034305;28;20244;-65
2021/08/23 06:00:50;;;;;;;5.35;4.60;;;15.30;99.90;;;;;;5049313;28;20289;-65
2021/08/23 06:03:16;;;;;;;4.80;4.40;;;15.40;99.90;;;;;;5046907;28;20202;-66
2021/08/23 06:05:43;;;;;;;4.85;4.45;;;15.40;99.90;;;;;;5029414;28;20241;-65
2021/08/23 06:08:12;;;;;;;5.80;5.30;;;15.50;99.90;;;;;;5066836;28;20215;-65
2021/08/23 06:10:39;;;;;;;5.03;4.47;;;15.60;99.90;;;;;;5069439;28;20278;-65
2021/08/23 06:13:05;;;;;;;6.57;4.45;;;15.60;99.90;;;;;;5049393;28;20209;-65
2021/08/23 06:15:32;;;;;;;5.20;4.80;;;15.70;99.90;;;;;;5048700;28;20208;-65
2021/08/23 06:17:59;;;;;;;6.82;4.72;;;15.90;99.90;;;;;;5048371;28;20201;-65
2021/08/23 06:20:26;;;;;;;5.13;4.63;;;16.00;99.90;;;;;;5048634;28;20205;-65
2021/08/23 06:22:53;;;;;;;5.70;4.78;;;16.10;99.90;;;;;;5041682;28;20213;-65
2021/08/23 06:25:22;;;;;;;4.40;4.10;;;16.30;99.90;;;;;;5049050;28;20295;-64
2021/08/23 06:27:49;;;;;;;5.82;4.45;;;16.40;99.90;;;;;;5046865;28;20201;-65
2021/08/23 06:30:16;;;;;;;4.80;4.30;;;16.50;99.90;;;;;;5048861;28;20266;-65
2021/08/23 06:32:43;;;;;;;5.43;5.03;;;16.60;99.90;;;;;;5048048;28;20268;-65
2021/08/23 06:35:10;;;;;;;8.90;4.93;;;16.80;99.90;;;;;;5048037;28;20275;-65
2021/08/23 06:37:40;;;;;;;5.05;4.65;;;17.20;99.90;;;;;;5045339;28;20213;-65
2021/08/23 06:40:08;;;;;;;4.68;4.28;;;17.40;99.90;;;;;;5049134;28;20296;-65
2021/08/23 06:42:38;;;;;;;4.67;4.20;;;17.50;99.90;;;;;;5047686;28;20259;-65
2021/08/23 06:45:06;;;;;;;7.90;4.80;;;17.70;99.90;;;;;;5046020;28;20468;-65
2021/08/23 06:47:33;;;;;;;4.07;3.67;;;17.80;99.90;;;;;;5047683;28;20579;-65
2021/08/23 06:50:00;;;;;;;4.17;3.80;;;17.90;99.90;;;;;;5046102;28;20466;-65
2021/08/23 06:52:28;;;;;;;3.77;3.50;;;17.80;99.90;;;;;;5047221;28;20488;-65
2021/08/23 06:54:55;;;;;;;3.77;3.37;;;17.90;99.90;;;;;;5038651;28;20456;-65
2021/08/23 06:57:22;;;;;;;3.97;3.60;;;18.00;99.90;;;;;;5047309;28;20482;-65
2021/08/23 06:59:50;;;;;;;3.77;3.50;;;18.00;99.90;;;;;;5047460;28;20488;-66
2021/08/23 07:02:17;;;;;;;4.40;4.00;;;17.90;99.90;;;;;;5047406;28;20456;-65
2021/08/23 07:04:44;;;;;;;3.90;3.60;;;17.90;99.90;;;;;;5047367;28;20499;-65
2021/08/23 07:07:11;;;;;;;3.67;3.37;;;17.90;99.90;;;;;;5047016;28;20496;-65
2021/08/23 07:09:39;;;;;;;4.37;3.97;;;18.00;99.90;;;;;;5047390;28;21202;-65
2021/08/23 07:12:07;;;;;;;3.87;3.57;;;18.10;99.90;;;;;;5048653;28;20563;-66
2021/08/23 07:14:36;;;;;;;4.73;3.87;;;18.20;99.90;;;;;;5049240;28;20459;-66
2021/08/23 07:17:04;;;;;;;3.73;3.40;;;18.10;99.90;;;;;;5039177;28;20460;-65
2021/08/23 07:19:32;;;;;;;5.83;3.63;;;18.10;99.90;;;;;;5040188;28;20542;-65
2021/08/23 07:21:59;;;;;;;4.07;3.77;;;17.90;99.90;;;;;;5046386;28;20469;-66
2021/08/23 07:24:29;;;;;;;4.13;3.27;;;17.90;99.90;;;;;;5044438;28;20456;-65
2021/08/23 07:26:57;;;;;;;3.93;3.63;;;18.00;99.90;;;;;;5043698;28;20500;-65
2021/08/23 07:29:25;;;;;;;3.70;3.40;;;18.00;99.90;;;;;;5049328;28;20503;-65
2021/08/23 07:31:52;;;;;;;7.60;3.87;;;18.10;99.90;;;;;;5054119;28;20499;-65
2021/08/23 07:34:21;;;;;;;3.50;3.30;;;18.20;99.90;;;;;;5048492;28;20491;-65
2021/08/23 07:36:51;;;;;;;3.83;3.47;;;18.40;99.90;;;;;;5046489;28;20472;-65
2021/08/23 07:39:18;;;;;;;4.17;3.63;;;18.40;99.90;;;;;;5048230;28;20456;-65
2021/08/23 07:41:48;;;;;;;4.17;3.50;;;18.60;99.90;;;;;;5045430;28;20505;-65
2021/08/23 07:44:16;;;;;;;4.27;3.47;;;18.70;99.90;;;;;;5048028;28;20544;-65
2021/08/23 07:46:43;;;;;;;3.53;3.23;;;18.80;99.90;;;;;;5048461;28;20487;-65
2021/08/23 07:49:10;;;;;;;4.67;3.73;;;18.80;99.90;;;;;;5049385;28;20451;-65
2021/08/23 07:51:38;;;;;;;4.10;3.40;;;18.70;99.90;;;;;;5047446;28;20494;-65
2021/08/23 07:54:05;;;;;;;4.20;3.80;;;18.90;99.90;;;;;;5046106;28;20451;-65
2021/08/23 07:56:32;;;;;;;4.20;3.80;;;19.00;99.90;;;;;;5052541;28;20455;-65
2021/08/23 07:58:59;;;;;;;3.33;3.13;;;19.10;99.90;;;;;;5045682;28;20459;-65
2021/08/23 08:01:26;;;;;;;3.10;2.90;;;19.60;99.90;;;;;;5049284;28;20456;-65
2021/08/23 08:03:54;;;;;;;3.43;3.20;;;20.10;99.90;;;;;;5049545;28;20460;-65
2021/08/23 08:06:20;;;;;;;3.77;3.40;;;20.40;99.90;;;;;;5051000;28;20493;-65
2021/08/23 08:08:49;;;;;;;3.30;3.00;;;20.50;99.90;;;;;;5044876;28;20466;-65
2021/08/23 08:11:16;;;;;;;3.93;3.00;;;20.80;99.90;;;;;;5043544;28;20456;-65
2021/08/23 08:13:43;;;;;;;3.43;3.23;;;21.00;99.90;;;;;;5045675;28;20485;-64
2021/08/23 08:16:10;;;;;;;3.23;3.00;;;21.00;99.90;;;;;;5050472;28;20544;-65
2021/08/23 08:18:37;;;;;;;3.57;2.80;;;20.70;99.90;;;;;;5046307;28;20982;-64
2021/08/23 08:21:04;;;;;;;4.60;3.60;;;20.60;99.90;;;;;;5052704;28;20534;-65
2021/08/23 08:23:31;;;;;;;3.47;3.23;;;20.70;99.90;;;;;;5051210;28;20464;-65
2021/08/23 08:26:00;;;;;;;3.67;3.40;;;20.70;99.90;;;;;;5045619;28;21015;-65
2021/08/23 08:28:27;;;;;;;4.23;3.93;;;20.40;99.90;;;;;;5044740;28;20460;-64
2021/08/23 08:30:55;;;;;;;3.23;2.93;;;20.30;99.90;;;;;;5044027;28;21362;-65
2021/08/23 08:33:22;;;;;;;3.60;3.13;;;20.30;99.90;;;;;;5045388;28;20540;-64
2021/08/23 08:35:58;;;;;;;5.73;3.87;;;20.10;99.90;;;;;;5045679;28;20464;-64
2021/08/23 08:38:25;;;;;;;3.77;3.47;;;20.00;99.90;;;;;;5045649;28;20468;-64
2021/08/23 08:40:53;;;;;;;5.33;4.00;;;20.00;99.90;;;;;;5053502;28;20571;-64
2021/08/23 08:43:26;;;;;;;3.50;3.20;;;19.80;99.90;;;;;;5045276;28;20535;-64
2021/08/23 08:45:54;;;;;;;5.43;3.87;;;19.60;99.90;;;;;;5045473;28;20534;-64
2021/08/23 08:48:23;;;;;;;3.70;3.40;;;19.30;99.90;;;;;;5045294;28;20476;-64
2021/08/23 08:50:51;;;;;;;4.07;3.77;;;19.10;99.90;;;;;;5048809;28;20539;-65
2021/08/23 08:53:19;;;;;;;4.83;4.37;;;19.00;99.90;;;;;;5048058;28;20499;-64
2021/08/23 08:55:46;;;;;;;10.33;3.87;;;19.00;99.90;;;;;;5047243;28;20491;-64
2021/08/23 08:58:13;;;;;;;4.07;3.67;;;19.20;99.90;;;;;;5045363;28;20798;-64
2021/08/23 09:00:42;;;;;;;3.87;3.50;;;19.40;99.90;;;;;;5043998;28;21093;-64
2021/08/23 09:03:10;;;;;;;4.37;3.97;;;19.30;99.90;;;;;;5058176;28;20471;-64
2021/08/23 09:05:38;;;;;;;4.70;3.43;;;19.40;99.90;;;;;;5045683;28;20462;-64
2021/08/23 09:08:07;;;;;;;3.20;3.00;;;19.60;99.90;;;;;;5053914;28;21023;-64
2021/08/23 09:10:39;;;;;;;3.60;3.33;;;19.80;99.90;;;;;;5048288;28;20452;-64
2021/08/23 09:13:08;;;;;;;3.27;3.03;;;19.70;99.90;;;;;;5055462;28;20480;-64
2021/08/23 09:15:36;;;;;;;4.13;3.67;;;19.70;99.90;;;;;;5050578;28;20879;-64
2021/08/23 09:18:10;;;;;;;4.60;3.70;;;19.90;99.90;;;;;;5048639;28;21102;-64
2021/08/23 09:20:38;;;;;;;3.97;3.67;;;19.80;99.90;;;;;;5048767;28;20464;-64
2021/08/23 09:23:12;;;;;;;4.10;3.80;;;19.90;99.90;;;;;;5047621;28;20558;-64
2021/08/23 09:25:40;;;;;;;4.00;3.70;;;20.40;99.90;;;;;;5048092;28;20601;-64
2021/08/23 09:28:10;;;;;;;5.13;3.53;;;20.20;99.90;;;;;;5050961;28;20539;-64
2021/08/23 09:30:38;;;;;;;3.87;3.53;;;20.10;99.90;;;;;;5055244;28;20459;-64
2021/08/23 09:33:08;;;;;;;3.47;3.20;;;20.10;99.90;;;;;;5048561;28;20484;-64
2021/08/23 09:35:37;;;;;;;4.03;3.33;;;20.60;99.90;;;;;;5051366;28;20457;-64
2021/08/23 09:38:09;;;;;;;3.50;3.30;;;20.80;99.90;;;;;;5053303;28;20738;-64
2021/08/23 09:40:38;;;;;;;4.10;3.80;;;20.70;99.90;;;;;;5048206;28;20460;-64
2021/08/23 09:43:11;;;;;;;3.93;3.60;;;20.70;99.90;;;;;;5047648;28;20470;-64
2021/08/23 09:45:38;;;;;;;6.17;4.43;;;21.20;99.90;;;;;;5047984;28;20471;-64
2021/08/23 09:48:07;;;;;;;3.57;3.27;;;21.40;99.90;;;;;;5050022;28;20464;-63
2021/08/23 09:50:43;;;;;;;4.50;4.10;;;21.60;99.90;;;;;;5046955;28;20546;-64
2021/08/23 09:53:12;;;;;;;4.00;3.60;;;21.70;99.90;;;;;;5046861;28;20868;-64
2021/08/23 09:55:41;;;;;;;4.20;3.90;;;21.80;99.90;;;;;;5047094;28;20464;-64
2021/08/23 09:58:09;;;;;;;3.83;3.47;;;22.00;99.90;;;;;;5050096;28;20479;-64
2021/08/23 10:00:38;;;;;;;3.87;3.60;;;22.20;99.90;;;;;;5047268;28;20465;-64
2021/08/23 10:03:14;;;;;;;3.70;3.40;;;23.10;99.90;;;;;;5047838;28;20562;-64
2021/08/23 10:05:44;;;;;;;4.10;3.70;;;23.30;99.30;;;;;;5053354;28;20441;-64
2021/08/23 10:08:13;;;;;;;3.57;3.37;;;23.50;99.30;;;;;;5047882;28;20852;-64
2021/08/23 10:10:41;;;;;;;4.80;3.03;;;24.80;95.50;;;;;;5047161;28;20472;-64
2021/08/23 10:13:09;;;;;;;3.37;3.17;;;25.40;92.70;;;;;;5047336;28;21028;-64
2021/08/23 10:15:38;;;;;;;3.30;3.10;;;25.10;93.20;;;;;;5047500;28;20460;-64
2021/08/23 10:18:05;;;;;;;3.87;3.57;;;24.60;93.40;;;;;;5046624;28;20533;-65
2021/08/23 10:20:35;;;;;;;3.30;3.10;;;24.20;96.30;;;;;;5048647;28;20439;-65
2021/08/23 10:23:03;;;;;;;3.67;3.40;;;23.60;96.20;;;;;;5047530;28;20527;-64
2021/08/23 10:25:31;;;;;;;4.20;3.90;;;22.80;97.40;;;;;;5047025;28;20473;-65
2021/08/23 10:28:08;;;;;;;4.60;4.17;;;22.00;98.50;;;;;;5046794;28;21027;-64
2021/08/23 10:30:37;;;;;;;9.50;4.60;;;21.40;99.90;;;;;;5043673;28;20431;-65
2021/08/23 10:33:12;;;;;;;3.97;3.57;;;20.90;99.90;;;;;;5047571;28;20499;-65
2021/08/23 10:35:52;;;;;;;7.03;4.50;;;20.50;99.90;;;;;;5046038;28;20553;-64
2021/08/23 10:38:21;;;;;;;4.20;3.90;;;20.20;99.90;;;;;;5037414;28;20464;-65
2021/08/23 10:40:49;;;;;;;4.93;4.53;;;20.00;99.90;;;;;;5047074;28;20481;-65
2021/08/23 10:43:18;;;;;;;4.60;4.20;;;19.90;99.90;;;;;;5052866;28;20823;-65
2021/08/23 10:45:47;;;;;;;5.30;4.90;;;19.60;99.90;;;;;;5048946;28;20546;-65
2021/08/23 10:48:16;;;;;;;4.90;4.50;;;19.50;99.90;;;;;;5042576;28;20468;-65
2021/08/23 10:50:44;;;;;;;5.27;4.77;;;19.70;99.90;;;;;;5046592;28;20494;-65
2021/08/23 10:53:16;;;;;;;6.13;4.50;;;19.70;99.90;;;;;;5046464;28;20498;-64
2021/08/23 10:55:43;;;;;;;9.10;5.33;;;19.90;99.90;;;;;;5051771;28;20561;-65
2021/08/23 10:58:11;;;;;;;4.47;4.07;;;20.00;99.90;;;;;;5045796;28;20525;-65
2021/08/23 11:00:40;;;;;;;5.30;4.80;;;20.40;99.90;;;;;;5046297;28;20526;-65
2021/08/23 11:03:09;;;;;;;4.53;4.20;;;20.80;99.90;;;;;;5045899;28;20476;-64
2021/08/23 11:05:37;;;;;;;4.97;4.67;;;21.40;99.90;;;;;;5045538;28;21690;-65
2021/08/23 11:08:09;;;;;;;4.03;3.70;;;21.90;99.90;;;;;;5045292;28;20947;-64
2021/08/23 11:10:40;;;;;;;4.53;4.23;;;22.30;99.90;;;;;;5044597;28;20467;-64
2021/08/23 11:13:13;;;;;;;4.40;4.10;;;22.80;99.90;;;;;;5050035;28;20545;-65
2021/08/23 11:15:40;;;;;;;4.27;3.97;;;23.00;99.90;;;;;;5044204;28;20467;-65
2021/08/23 11:18:10;;;;;;;4.10;3.80;;;22.90;99.90;;;;;;5044581;28;21177;-64
2021/08/23 11:20:40;;;;;;;4.63;4.33;;;23.10;99.90;;;;;;5041368;28;20491;-64
2021/08/23 11:23:08;;;;;;;3.80;3.50;;;22.80;99.90;;;;;;5045279;28;20478;-64
2021/08/23 11:25:39;;;;;;;3.73;3.53;;;22.50;98.70;;;;;;5045612;28;21016;-64
2021/08/23 11:28:08;;;;;;;4.37;2.90;;;22.40;98.50;;;;;;5040850;28;20552;-64
2021/08/23 11:30:36;;;;;;;4.03;3.13;;;22.10;99.90;;;;;;5049427;28;20464;-64
2021/08/23 11:33:04;;;;;;;3.77;3.17;;;21.90;99.90;;;;;;5044277;28;20587;-64
2021/08/23 11:35:32;;;;;;;3.97;3.57;;;21.60;99.90;;;;;;5045269;28;20468;-64
2021/08/23 11:38:02;;;;;;;3.50;3.13;;;21.70;99.90;;;;;;5043957;28;20475;-65
2021/08/23 11:40:30;;;;;;;3.30;3.10;;;21.70;99.90;;;;;;5036720;28;21317;-64
2021/08/23 11:43:00;;;;;;;3.70;3.40;;;21.90;99.90;;;;;;5043771;28;20533;-64
2021/08/23 11:45:29;;;;;;;3.80;3.50;;;22.30;99.90;;;;;;5042649;28;20495;-64
2021/08/23 11:47:56;;;;;;;5.27;2.93;;;22.40;99.90;;;;;;5048805;28;20985;-64
2021/08/23 11:50:24;;;;;;;3.17;2.97;;;22.40;99.90;;;;;;5044650;28;21099;-64
2021/08/23 11:52:54;;;;;;;3.70;3.40;;;22.50;99.90;;;;;;5044441;28;20492;-64
2021/08/23 11:55:27;;;;;;;2.97;2.77;;;22.30;99.70;;;;;;5045001;28;20557;-64
2021/08/23 11:58:01;;;;;;;3.50;3.20;;;22.10;99.90;;;;;;5043101;28;20583;-64
2021/08/23 12:00:28;;;;;;;2.90;2.60;;;21.90;99.50;;;;;;5045422;28;20562;-64
2021/08/23 12:03:03;;;;;;;3.20;3.00;;;21.80;99.60;;;;;;5045937;28;20549;-64
2021/08/23 12:05:35;;;;;;;3.27;3.07;;;21.80;99.90;;;;;;5043938;28;20572;-64
2021/08/23 12:08:02;;;;;;;2.30;2.20;;;21.50;99.90;;;;;;5045633;28;20487;-64
2021/08/23 12:10:31;;;;;;;5.23;2.60;;;21.70;99.90;;;;;;5041427;28;20464;-64
2021/08/23 12:13:15;;;;;;;2.50;2.30;;;21.60;99.50;;;;;;5044270;28;21202;-65
2021/08/23 12:15:54;;;;;;;5.60;2.17;;;21.40;99.50;;;;;;5039101;28;20456;-64
2021/08/23 12:18:33;;;;;;;2.43;2.23;;;21.40;99.90;;;;;;5045207;28;20460;-64
2021/08/23 12:21:09;;;;;;;2.60;2.50;;;21.90;99.90;;;;;;5038197;28;20573;-65
2021/08/23 12:23:48;;;;;;;2.70;2.50;;;22.10;99.90;;;;;;5041375;28;20477;-64
2021/08/23 12:26:15;;;;;;;2.27;2.17;;;22.00;99.10;;;;;;5042924;28;21051;-64
2021/08/23 12:28:51;;;;;;;2.53;2.33;;;22.00;98.70;;;;;;5048418;28;20517;-64
2021/08/23 12:31:19;;;;;;;2.30;2.20;;;22.10;99.10;;;;;;5055443;28;20473;-64
2021/08/23 12:33:46;;;;;;;2.93;2.73;;;22.10;99.10;;;;;;5031504;28;21016;-64
2021/08/23 12:36:14;;;;;;;2.67;2.47;;;22.10;99.10;;;;;;5046707;28;20475;-64
2021/08/23 12:38:43;;;;;;;3.33;3.03;;;21.90;98.40;;;;;;5056030;28;20525;-64
2021/08/23 12:41:11;;;;;;;3.30;3.00;;;21.90;99.50;;;;;;5048564;28;20471;-64
2021/08/23 12:43:39;;;;;;;2.97;2.77;;;22.10;99.10;;;;;;5047910;28;20452;-66
2021/08/23 12:46:07;;;;;;;3.40;2.70;;;22.50;99.80;;;;;;5041892;28;20459;-65
2021/08/23 12:48:35;;;;;;;2.43;2.23;;;22.60;99.30;;;;;;5047606;28;20542;-66
2021/08/23 12:51:06;;;;;;;2.53;2.37;;;22.70;97.10;;;;;;5048136;28;21254;-65